ADDS METAR Data INFO
IDs: Format: Raw Decoded Include TAF

Data at: 1835 UTC 16 Dec 2017

KMTN 161745Z 19015KT 10SM FEW120 06/M03 A3010
KMTN 161645Z 20009G15KT 10SM SCT120 03/M03 A3012
KMTN 161545Z 20007KT 10SM SCT110 03/M03 A3015
KMTN 161445Z 22005KT 10SM SCT060 SCT150 02/M03 A3017
KMTN 161345Z 22006KT 10SM FEW070 SCT150 M01/M03 A3016
KMTN 161245Z 21003KT 10SM SCT070 M04/M05 A3015
KMTN 161145Z 21004KT 10SM SCT070 M03/M03 A3014
KMTN 161045Z 20003KT 10SM SCT070 M04/M04 A3012 RMK FIRST
KMTN 161036Z AUTO 18003KT 10SM CLR M03/M03 A3011 RMK AO2
KMTN 161030Z AUTO 17004KT 10SM CLR M03/M03 A3011 RMK AO2
KMTN 161012Z AUTO 17003KT 7SM CLR M06/M06 A3010 RMK AO2
KMTN 160951Z AUTO 00000KT 1 1/4SM BR VV007 M05/M05 A3009 RMK AO2
KMTN 160930Z AUTO 00000KT 5SM BR BKN065 M05/M05 A3009 RMK AO2
KMTN 160912Z AUTO 00000KT 5SM BR SCT055 OVC065 M05/M05 A3010 RMK AO2
KMTN 160851Z AUTO 00000KT 5SM BR OVC060 M05/M05 A3010 RMK AO2
KMTN 160830Z AUTO 00000KT 5SM BR OVC060 M06/M06 A3009 RMK AO2
KMTN 160812Z AUTO 00000KT 5SM BR BKN060 M06/M06 A3008 RMK AO2
KMTN 160751Z AUTO 00000KT 5SM BR CLR M06/M06 A3007 RMK AO2
KMTN 160730Z AUTO 00000KT 5SM BR BKN060 M05/M05 A3007 RMK AO2
KMTN 160712Z AUTO 00000KT 5SM BR OVC060 M06/M06 A3006 RMK AO2
KMTN 160651Z AUTO 00000KT 5SM BR OVC060 M06/M06 A3006 RMK AO2
KMTN 160630Z AUTO 00000KT 5SM BR OVC060 M07/M07 A3005 RMK AO2
KMTN 160612Z AUTO 00000KT 3SM BR BKN060 M06/M07 A3005 RMK AO2
KMTN 160551Z AUTO 00000KT 2 1/2SM BR SCT050 M07/M07 A3005 RMK AO2 VIS 1 1/2V3
KMTN 160530Z AUTO 00000KT 4SM BR CLR M07/M07 A3004 RMK AO2
KMTN 160512Z AUTO 00000KT 4SM BR CLR M07/M07 A3003 RMK AO2
KMTN 160451Z AUTO 00000KT 1 1/4SM BR VV007 M06/M06 A3003 RMK AO2
KMTN 160430Z AUTO 00000KT 4SM BR CLR M06/M06 A3003 RMK AO2
KMTN 160412Z AUTO 00000KT 5SM BR CLR M07/M07 A3002 RMK AO2
KMTN 160351Z AUTO 00000KT 7SM SCT060 M07/M07 A3002 RMK AO2
KMTN 160330Z AUTO 00000KT 3SM BR CLR M06/M06 A3002 RMK AO2
KMTN 160312Z AUTO 00000KT 1 1/4SM BR VV007 M06/M06 A3002 RMK AO2
KMTN 160245Z 00000KT 4SM BR SKC M06/M06 A3002 RMK LAST
KMTN 160145Z 00000KT 5SM BR SKC M05/M05 A3001
KMTN 160045Z 00000KT 4SM BR SKC M05/M05 A3000
KMTN 152345Z 00000KT 4SM BR FEW043 M04/M04 A2998
KMTN 152245Z 00000KT 10SM OVC043 M03/M03 A2996
KMTN 152145Z 33003KT 3SM -SN SCT030 OVC047 M03/M03 A2996
KMTN 152045Z 33003KT 1/2SM SN OVC009 M03/M03 A2997
KMTN 151945Z 00000KT 1/4SM SN OVC015 M03/M04 A2996
KMTN 151845Z 00000KT 1SM -SN OVC035 M02/M06 A2998
KMTN 151825Z 00000KT 2SM -SN OVC040 M02/M06 A2999
KMTN 151745Z 00000KT 10SM -GS OVC035 M02/M08 A2999 RMK PRESFR
KMTN 151645Z 00000KT 10SM -SN OVC040 M01/M09 A3005
KMTN 151545Z 05004KT 10SM BKN045 OVC050 M01/M09 A3009
KMTN 151445Z 07004KT 10SM OVC050 M02/M09 A3012
KMTN 151345Z 00000KT 10SM OVC050 M02/M09 A3012
KMTN 151245Z 00000KT 10SM BKN050 OVC085 M02/M10 A3013
KMTN 151145Z 00000KT 10SM BKN050 OVC085 M02/M09 A3014
KMTN 151045Z 00000KT 10SM BKN050 BKN180 M03/M08 A3013 RMK FIRST
KMTN 151036Z AUTO 00000KT 10SM OVC050 M02/M08 A3015 RMK AO2
KMTN 151030Z AUTO 00000KT 10SM OVC050 M02/M08 A3015 RMK AO2
KMTN 151012Z AUTO 00000KT 10SM OVC050 M03/M08 A3014 RMK AO2
KMTN 150951Z AUTO 00000KT 10SM OVC050 M03/M08 A3014 RMK AO2
KMTN 150930Z AUTO 00000KT 10SM BKN055 M03/M09 A3015 RMK AO2
KMTN 150912Z AUTO 00000KT 10SM SCT055 M03/M10 A3015 RMK AO2
KMTN 150851Z AUTO 00000KT 10SM CLR M03/M09 A3015 RMK AO2
KMTN 150830Z AUTO 00000KT 10SM CLR M02/M10 A3015 RMK AO2
KMTN 150812Z AUTO 00000KT 10SM CLR M02/M10 A3016 RMK AO2
KMTN 150751Z AUTO 00000KT 10SM CLR M02/M10 A3015 RMK AO2
KMTN 150730Z AUTO 00000KT 10SM CLR M02/M10 A3016 RMK AO2
KMTN 150712Z AUTO 00000KT 10SM CLR M02/M10 A3015 RMK AO2
KMTN 150651Z AUTO 00000KT 10SM CLR M02/M10 A3014 RMK AO2